Flight Track Log - Related Links

Times and Time Zones

All times are in EST time to prevent confusion due to time zone crossing. See the UCA3588 flight status page for this flight to view local times or setup timezone preferences in your user account.

Time Position Orientation Groundspeed Altitude Reporting Facility
EST Latitude Longitude Course Direction KTS MPH feet Rate Location/Type
Sun 01:41:45 PM 43.1075 -76.1217 251° West 113 130 1,100  Level Boston Center
Sun 01:42:34 PM 43.1025 -76.1636 261° West 149 171 1,800 951 Climbing Boston Center
Sun 01:43:07 PM 43.0950 -76.1947 252° West 147 169 2,400 1,100 Climbing Boston Center
Sun 01:43:34 PM 43.0833 -76.2250 242° Southwest 181 208 2,900 1,279 Climbing Boston Center
Sun 01:44:08 PM 43.0739 -76.2583 249° West 169 194 3,700 1,377 Climbing Boston Center
Sun 01:44:35 PM 43.0664 -76.2867 250° West 184 212 4,300 1,452 Climbing Boston Center
Sun 01:45:10 PM 43.0569 -76.3200 249° West 174 200 5,200 1,574 Climbing Boston Center
Sun 01:45:36 PM 43.0500 -76.3456 250° West 169 194 5,900 1,377 Climbing Boston Center
Sun 01:46:11 PM 43.0397 -76.3764 245° Southwest 166 191 6,600 1,300 Climbing Boston Center
Sun 01:46:36 PM 43.0319 -76.4011 247° West 158 182 7,200 1,279 Climbing Boston Center
Sun 01:47:00 PM 42.9653 -76.5531 251° West  Level FlightAware Approximate
Sun 01:47:12 PM 43.0231 -76.4328 249° West 161 185 7,900  Level Boston Center
Sun 01:47:37 PM 43.0153 -76.4600 249° West 161 185 8,000 98 Climbing Boston Center
Sun 01:48:13 PM 43.0050 -76.4950 248° West 175 201 8,000  Level Boston Center
Sun 01:48:37 PM 42.9933 -76.5375 249° West 211 243 8,000  Level Boston Center
Sun 01:49:15 PM 42.9833 -76.5700 247° West 207 238 8,000  Level Boston Center
Sun 01:49:38 PM 42.9697 -76.6117 246° West 219 252 8,000  Level Boston Center
Sun 01:50:16 PM 42.9594 -76.6500 250° West 211 243 8,000  Level Boston Center
Sun 01:51:17 PM 42.9372 -76.7231 247° West 209 241 8,000  Level Boston Center
Sun 01:52:18 PM 42.9147 -76.7961 247° West 209 241 8,000  Level Boston Center
Sun 01:53:19 PM 42.8942 -76.8700 249° West 209 241 8,000  Level Boston Center
Sun 01:53:54 PM 42.8786 -76.9206 247° West 211 243 8,000  Level Cleveland Center
Sun 01:54:33 PM 42.8669 -76.9578 247° West 210 242 8,000  Level Cleveland Center
Sun 01:54:55 PM 42.8556 -76.9953 248° West 213 245 8,000  Level Cleveland Center
Sun 01:55:35 PM 42.8400 -77.0472 248° West 211 243 8,000  Level Cleveland Center
Sun 01:55:55 PM 42.8331 -77.0675 245° Southwest 211 243 8,000  Level Cleveland Center
Sun 01:56:37 PM 42.8172 -77.1211 248° West 211 243 8,000  Level Cleveland Center
Sun 01:56:56 PM 42.8100 -77.1422 245° Southwest 213 245 8,000  Level Cleveland Center
Sun 01:57:39 PM 42.7947 -77.1944 248° West 211 243 8,000  Level Cleveland Center
Sun 01:57:56 PM 42.7861 -77.2225 247° West 210 242 8,000  Level Cleveland Center
Sun 01:58:41 PM 42.7725 -77.2675 248° West 211 243 8,000  Level Cleveland Center
Sun 01:58:57 PM 42.7631 -77.2972 247° West 214 246 8,000  Level Cleveland Center
Sun 01:59:42 PM 42.7492 -77.3436 248° West 212 244 8,000  Level Cleveland Center
Sun 01:59:58 PM 42.7397 -77.3717 245° Southwest 217 250 8,000  Level Cleveland Center
Sun 02:00:44 PM 42.7272 -77.4167 249° West 213 245 8,000  Level Cleveland Center
Sun 02:00:58 PM 42.7186 -77.4467 249° West 206 237 8,000  Level Cleveland Center
Sun 02:01:46 PM 42.7053 -77.4886 247° West 211 243 8,000  Level Cleveland Center
Sun 02:01:59 PM 42.6956 -77.5186 246° West 207 238 8,000  Level Cleveland Center
Sun 02:02:59 PM 42.6722 -77.5931 247° West 210 242 8,000  Level Cleveland Center
Sun 02:03:50 PM 42.6569 -77.6442 248° West 210 242 8,000  Level Cleveland Center
Sun 02:04:00 PM 42.6494 -77.6644 243° Southwest 210 242 8,000  Level Cleveland Center
Sun 02:04:51 PM 42.6339 -77.7181 248° West 211 243 8,000  Level Cleveland Center
Sun 02:05:53 PM 42.6114 -77.7919 248° West 211 243 8,000  Level Cleveland Center
Sun 02:06:55 PM 42.5894 -77.8617 247° West 210 242 8,000  Level Cleveland Center
Sun 02:07:57 PM 42.5631 -77.9475 247° West 209 241 8,000  Level Cleveland Center
Sun 02:08:59 PM 42.5408 -78.0181 247° West 208 239 8,000  Level Cleveland Center
Sun 02:10:00 PM 42.5192 -78.0906 249° West 208 239 8,000  Level Cleveland Center
Sun 02:11:02 PM 42.4969 -78.1614 247° West 208 239 8,000  Level Cleveland Center
Sun 02:12:04 PM 42.4736 -78.2322 246° West 208 239 8,000  Level Cleveland Center
Sun 02:13:06 PM 42.4472 -78.3169 247° West 206 237 8,000  Level Cleveland Center
Sun 02:14:07 PM 42.4239 -78.3897 247° West 207 238 8,000  Level Cleveland Center
Sun 02:15:09 PM 42.4022 -78.4614 248° West 207 238 8,000  Level Cleveland Center
Sun 02:16:11 PM 42.3789 -78.5317 246° West 207 238 8,000  Level Cleveland Center
Sun 02:17:13 PM 42.3558 -78.6039 247° West 207 238 8,000  Level Cleveland Center
Sun 02:18:14 PM 42.3331 -78.6736 246° West 207 238 8,000  Level Cleveland Center
Sun 02:19:16 PM 42.3108 -78.7464 248° West 207 238 8,000  Level Cleveland Center
Sun 02:20:18 PM 42.2828 -78.8325 246° West 207 238 8,000  Level Cleveland Center
Sun 02:21:19 PM 42.2603 -78.9036 247° West 207 238 8,000  Level Cleveland Center
Sun 02:22:21 PM 42.2353 -78.9778 246° West 208 239 8,000  Level Cleveland Center
Sun 02:23:23 PM 42.2100 -79.0544 246° West 209 241 8,000  Level Cleveland Center
Sun 02:24:25 PM 42.1850 -79.1278 245° Southwest 209 241 8,000  Level Cleveland Center
Sun 02:25:26 PM 42.1550 -79.1922 238° Southwest 212 244 8,000  Level Cleveland Center
Sun 02:26:28 PM 42.1228 -79.2619 238° Southwest 211 243 8,000 48 Level Cleveland Center
Sun 02:27:30 PM 42.0906 -79.3325 238° Southwest 211 243 8,100 48 Climbing Cleveland Center
Sun 02:28:32 PM 42.0581 -79.4025 238° Southwest 211 243 8,100  Level Cleveland Center
Sun 02:29:34 PM 42.0247 -79.4736 238° Southwest 212 244 8,100  Level Cleveland Center
Sun 02:30:35 PM 41.9944 -79.5372 237° Southwest 212 244 8,100  Level Cleveland Center
Sun 02:31:37 PM 41.9617 -79.6072 238° Southwest 212 244 8,100  Level Cleveland Center
Sun 02:32:39 PM 41.9281 -79.6792 238° Southwest 213 245 8,100  Level Cleveland Center
Sun 02:33:41 PM 41.8992 -79.7450 239° Southwest 214 246 8,100  Level Cleveland Center
Sun 02:34:43 PM 41.8661 -79.8119 236° Southwest 214 246 8,100  Level Cleveland Center
Sun 02:35:45 PM 41.8339 -79.8819 238° Southwest 215 247 8,100  Level Cleveland Center
Sun 02:36:46 PM 41.8006 -79.9483 236° Southwest 215 247 8,100  Level Cleveland Center
Sun 02:37:48 PM 41.7631 -80.0269 237° Southwest 217 250 8,100  Level Cleveland Center
Sun 02:38:50 PM 41.7325 -80.1000 241° Southwest 216 249 8,100  Level Cleveland Center
Sun 02:39:52 PM 41.7172 -80.1822 256° West 218 251 8,100  Level Cleveland Center
Sun 02:40:54 PM 41.7022 -80.2564 255° West 215 247 8,100  Level Cleveland Center
Sun 02:41:56 PM 41.6856 -80.3353 254° West 213 245 8,100  Level Cleveland Center
Sun 02:42:58 PM 41.6719 -80.4097 256° West 213 245 8,100 -145 Level Cleveland Center
Sun 02:44:00 PM 41.6556 -80.4861 254° West 213 245 7,800 -683 Descending Cleveland Center
Sun 02:45:01 PM 41.6411 -80.5636 256° West 213 245 6,700 -1,171 Descending Cleveland Center
Sun 02:46:03 PM 41.6214 -80.6583 254° West 220 253 5,400 -1,161 Descending Cleveland Center
Sun 02:47:05 PM 41.6053 -80.7400 255° West 222 255 4,300 -703 Descending Cleveland Center
Sun 02:47:54 PM 41.5903 -80.8011 252° West 225 259 4,100 -194 Descending Cleveland Center
Sun 02:48:07 PM 41.5881 -80.8206 261° West 222 255 4,100  Level Cleveland Center
Sun 02:48:48 PM 41.5778 -80.8744 256° West 220 253 4,100  Level Cleveland Center
Sun 02:49:09 PM 41.5736 -80.8994 257° West 221 254 4,100  Level Cleveland Center
Sun 02:49:49 PM 41.5708 -80.9572 266° West 220 253 4,100  Level Cleveland Center
Sun 02:50:11 PM 41.5689 -80.9825 264° West 221 254 4,100  Level Cleveland Center
Sun 02:50:50 PM 41.5658 -81.0403 266° West 221 254 4,100  Level Cleveland Center
Sun 02:51:13 PM 41.5647 -81.0644 266° West 221 254 4,100  Level Cleveland Center
Sun 02:51:50 PM 41.5611 -81.1206 265° West 217 250 4,100  Level Cleveland Center
Sun 02:52:15 PM 41.5592 -81.1456 264° West 221 254 4,100  Level Cleveland Center
Sun 02:52:51 PM 41.5542 -81.2006 263° West 213 245 4,100  Level Cleveland Center
Sun 02:53:17 PM 41.5544 -81.2244 271° West 219 252 4,100  Level Cleveland Center
Sun 02:53:52 PM 41.5497 -81.2781 263° West 213 245 4,100  Level Cleveland Center
Sun 02:54:19 PM 41.5483 -81.3164 267° West 216 249 4,100  Level Cleveland Center
Sun 02:54:52 PM 41.5447 -81.3583 263° West 214 246 4,100  Level Cleveland Center
Sun 02:55:21 PM 41.5425 -81.3967 266° West 215 247 4,100  Level Cleveland Center
Sun 02:55:53 PM 41.5311 -81.4400 251° West 219 252 4,100  Level Cleveland Center
Sun 02:56:23 PM 41.5219 -81.4717 249° West 218 251 4,100  Level Cleveland Center
Sun 02:56:53 PM 41.5078 -81.5144 246° West 215 247 4,100  Level Cleveland Center
Sun 02:57:25 PM 41.4994 -81.5472 251° West 217 250 4,100  Level Cleveland Center
Sun 02:57:54 PM 41.4861 -81.5919 248° West 217 250 4,100 -97 Level Cleveland Center
Sun 02:58:27 PM 41.4822 -81.6239 261° West 217 250 4,000 -689 Descending Cleveland Center
Sun 02:58:55 PM 41.4792 -81.6692 265° West 215 247 3,400 -871 Descending Cleveland Center
Sun 02:59:29 PM 41.4761 -81.7025 263° West 217 250 3,100 -400 Descending Cleveland Center
Sun 02:59:55 PM 41.4728 -81.7406 263° West 189 217 3,000 -581 Descending Cleveland Center
Sun 03:00:31 PM 41.4619 -81.7750 247° West 185 213 2,500 -787 Descending Cleveland Center
Sun 03:00:56 PM 41.4511 -81.7931 231° Southwest 147 169 2,200 -871 Descending Cleveland Center
Sun 03:01:33 PM 41.4375 -81.8147 230° Southwest 152 175 1,600 -909 Descending Cleveland Center
Sun 03:02:02 PM 41.4267 -81.8308 228° Southwest 118 136 1,200 -774 Descending Cleveland Center
Sun 03:02:35 PM 41.4161 -81.8483 231° Southwest 131 151 800 -727 Descending Cleveland Center

Login

Don't have an account? Register now (free) for customized features, flight alerts, and more!